sensor_id;sensor_type;location;lat;lon;timestamp;P1;durP1;ratioP1;P2;durP2;ratioP2
30743;SDS011;17486;46.738;7.622;2023-12-07T00:01:40;8.90;;;6.72;;
30743;SDS011;17486;46.738;7.622;2023-12-07T00:04:06;8.35;;;6.03;;
30743;SDS011;17486;46.738;7.622;2023-12-07T00:06:31;5.40;;;4.32;;
30743;SDS011;17486;46.738;7.622;2023-12-07T00:08:56;5.70;;;3.95;;
30743;SDS011;17486;46.738;7.622;2023-12-07T00:11:23;5.55;;;4.03;;
30743;SDS011;17486;46.738;7.622;2023-12-07T00:13:48;6.55;;;3.70;;
30743;SDS011;17486;46.738;7.622;2023-12-07T00:16:14;7.57;;;3.35;;
30743;SDS011;17486;46.738;7.622;2023-12-07T00:18:39;4.38;;;2.55;;
30743;SDS011;17486;46.738;7.622;2023-12-07T00:21:05;3.95;;;2.38;;
30743;SDS011;17486;46.738;7.622;2023-12-07T00:23:32;3.42;;;2.15;;
30743;SDS011;17486;46.738;7.622;2023-12-07T00:25:58;2.25;;;1.80;;
30743;SDS011;17486;46.738;7.622;2023-12-07T00:28:23;3.63;;;2.17;;
30743;SDS011;17486;46.738;7.622;2023-12-07T00:30:48;3.33;;;2.08;;
30743;SDS011;17486;46.738;7.622;2023-12-07T00:33:14;2.50;;;1.70;;
30743;SDS011;17486;46.738;7.622;2023-12-07T00:35:39;2.47;;;1.98;;
30743;SDS011;17486;46.738;7.622;2023-12-07T00:38:04;3.20;;;1.80;;
30743;SDS011;17486;46.738;7.622;2023-12-07T00:40:33;4.20;;;2.10;;
30743;SDS011;17486;46.738;7.622;2023-12-07T00:43:01;1.83;;;1.67;;
30743;SDS011;17486;46.738;7.622;2023-12-07T00:45:27;3.20;;;1.75;;
30743;SDS011;17486;46.738;7.622;2023-12-07T00:47:52;2.08;;;1.88;;
30743;SDS011;17486;46.738;7.622;2023-12-07T00:50:18;2.15;;;1.92;;
30743;SDS011;17486;46.738;7.622;2023-12-07T00:52:43;4.13;;;2.00;;
30743;SDS011;17486;46.738;7.622;2023-12-07T00:55:08;2.10;;;1.90;;
30743;SDS011;17486;46.738;7.622;2023-12-07T00:57:34;3.25;;;2.20;;
30743;SDS011;17486;46.738;7.622;2023-12-07T00:59:59;2.65;;;1.83;;
30743;SDS011;17486;46.738;7.622;2023-12-07T01:02:24;2.20;;;1.77;;
30743;SDS011;17486;46.738;7.622;2023-12-07T01:04:50;2.28;;;1.92;;
30743;SDS011;17486;46.738;7.622;2023-12-07T01:07:15;4.13;;;1.73;;
30743;SDS011;17486;46.738;7.622;2023-12-07T01:09:40;1.85;;;1.58;;
30743;SDS011;17486;46.738;7.622;2023-12-07T01:12:06;1.83;;;1.52;;
30743;SDS011;17486;46.738;7.622;2023-12-07T01:14:31;4.72;;;1.63;;
30743;SDS011;17486;46.738;7.622;2023-12-07T01:16:57;1.55;;;1.45;;
30743;SDS011;17486;46.738;7.622;2023-12-07T01:19:22;5.00;;;1.90;;
30743;SDS011;17486;46.738;7.622;2023-12-07T01:21:48;2.70;;;1.80;;
30743;SDS011;17486;46.738;7.622;2023-12-07T01:24:13;3.85;;;2.17;;
30743;SDS011;17486;46.738;7.622;2023-12-07T01:26:38;1.98;;;1.77;;
30743;SDS011;17486;46.738;7.622;2023-12-07T01:29:04;4.55;;;2.30;;
30743;SDS011;17486;46.738;7.622;2023-12-07T01:31:29;2.58;;;1.88;;
30743;SDS011;17486;46.738;7.622;2023-12-07T01:33:55;2.28;;;1.60;;
30743;SDS011;17486;46.738;7.622;2023-12-07T01:36:20;2.38;;;1.50;;
30743;SDS011;17486;46.738;7.622;2023-12-07T01:38:46;1.83;;;1.40;;
30743;SDS011;17486;46.738;7.622;2023-12-07T01:41:11;1.80;;;1.58;;
30743;SDS011;17486;46.738;7.622;2023-12-07T01:43:37;2.67;;;1.40;;
30743;SDS011;17486;46.738;7.622;2023-12-07T01:46:03;2.47;;;1.63;;
30743;SDS011;17486;46.738;7.622;2023-12-07T01:54:39;2.90;;;2.05;;
30743;SDS011;17486;46.738;7.622;2023-12-07T01:57:50;2.78;;;2.20;;
30743;SDS011;17486;46.738;7.622;2023-12-07T02:07:41;2.13;;;1.40;;
30743;SDS011;17486;46.738;7.622;2023-12-07T02:10:25;3.95;;;1.75;;
30743;SDS011;17486;46.738;7.622;2023-12-07T02:13:31;2.10;;;1.20;;
30743;SDS011;17486;46.738;7.622;2023-12-07T02:16:13;1.42;;;1.33;;
30743;SDS011;17486;46.738;7.622;2023-12-07T02:19:11;1.98;;;1.50;;
30743;SDS011;17486;46.738;7.622;2023-12-07T02:28:48;2.42;;;1.30;;
30743;SDS011;17486;46.738;7.622;2023-12-07T02:35:13;2.25;;;1.23;;
30743;SDS011;17486;46.738;7.622;2023-12-07T02:38:00;1.52;;;1.15;;
30743;SDS011;17486;46.738;7.622;2023-12-07T02:40:47;1.35;;;1.08;;
30743;SDS011;17486;46.738;7.622;2023-12-07T02:43:45;1.23;;;0.95;;
30743;SDS011;17486;46.738;7.622;2023-12-07T02:47:20;2.17;;;1.10;;
30743;SDS011;17486;46.738;7.622;2023-12-07T02:50:54;1.88;;;1.02;;
30743;SDS011;17486;46.738;7.622;2023-12-07T02:53:27;1.25;;;0.88;;
30743;SDS011;17486;46.738;7.622;2023-12-07T02:55:56;1.80;;;0.95;;
30743;SDS011;17486;46.738;7.622;2023-12-07T02:58:42;1.63;;;1.10;;
30743;SDS011;17486;46.738;7.622;2023-12-07T03:01:22;1.23;;;1.13;;
30743;SDS011;17486;46.738;7.622;2023-12-07T03:03:56;1.83;;;0.95;;
30743;SDS011;17486;46.738;7.622;2023-12-07T03:06:26;1.60;;;1.10;;
30743;SDS011;17486;46.738;7.622;2023-12-07T03:08:58;1.42;;;1.00;;
30743;SDS011;17486;46.738;7.622;2023-12-07T03:11:29;2.20;;;1.40;;
30743;SDS011;17486;46.738;7.622;2023-12-07T03:14:16;2.78;;;1.40;;
30743;SDS011;17486;46.738;7.622;2023-12-07T03:16:40;2.65;;;1.13;;
30743;SDS011;17486;46.738;7.622;2023-12-07T03:19:09;1.30;;;1.20;;
30743;SDS011;17486;46.738;7.622;2023-12-07T03:21:43;2.67;;;1.48;;
30743;SDS011;17486;46.738;7.622;2023-12-07T03:24:18;2.45;;;1.20;;
30743;SDS011;17486;46.738;7.622;2023-12-07T03:26:58;1.40;;;1.08;;
30743;SDS011;17486;46.738;7.622;2023-12-07T03:29:30;1.15;;;1.08;;
30743;SDS011;17486;46.738;7.622;2023-12-07T03:32:12;1.40;;;0.90;;
30743;SDS011;17486;46.738;7.622;2023-12-07T03:34:38;2.28;;;1.35;;
30743;SDS011;17486;46.738;7.622;2023-12-07T03:37:27;3.28;;;1.45;;
30743;SDS011;17486;46.738;7.622;2023-12-07T03:40:10;2.97;;;1.40;;
30743;SDS011;17486;46.738;7.622;2023-12-07T03:42:35;1.48;;;1.08;;
30743;SDS011;17486;46.738;7.622;2023-12-07T03:45:13;2.58;;;1.23;;
30743;SDS011;17486;46.738;7.622;2023-12-07T03:47:38;1.42;;;1.20;;
30743;SDS011;17486;46.738;7.622;2023-12-07T03:50:16;1.90;;;1.40;;
30743;SDS011;17486;46.738;7.622;2023-12-07T03:52:41;1.55;;;1.38;;
30743;SDS011;17486;46.738;7.622;2023-12-07T03:55:10;1.77;;;1.45;;
30743;SDS011;17486;46.738;7.622;2023-12-07T03:57:38;2.17;;;1.02;;
30743;SDS011;17486;46.738;7.622;2023-12-07T04:00:13;1.20;;;1.10;;
30743;SDS011;17486;46.738;7.622;2023-12-07T04:02:39;1.48;;;1.05;;
30743;SDS011;17486;46.738;7.622;2023-12-07T04:05:10;2.55;;;1.35;;
30743;SDS011;17486;46.738;7.622;2023-12-07T04:07:44;5.15;;;1.13;;
30743;SDS011;17486;46.738;7.622;2023-12-07T04:10:10;1.77;;;1.00;;
30743;SDS011;17486;46.738;7.622;2023-12-07T04:12:36;2.15;;;0.90;;
30743;SDS011;17486;46.738;7.622;2023-12-07T04:15:02;1.60;;;1.20;;
30743;SDS011;17486;46.738;7.622;2023-12-07T04:17:27;1.60;;;1.20;;
30743;SDS011;17486;46.738;7.622;2023-12-07T04:19:53;2.45;;;0.98;;
30743;SDS011;17486;46.738;7.622;2023-12-07T04:22:18;1.25;;;0.80;;
30743;SDS011;17486;46.738;7.622;2023-12-07T04:24:44;1.85;;;1.20;;
30743;SDS011;17486;46.738;7.622;2023-12-07T04:27:10;1.65;;;1.13;;
30743;SDS011;17486;46.738;7.622;2023-12-07T04:29:35;1.60;;;1.20;;
30743;SDS011;17486;46.738;7.622;2023-12-07T04:32:01;2.10;;;1.05;;
30743;SDS011;17486;46.738;7.622;2023-12-07T04:34:27;2.50;;;1.50;;
30743;SDS011;17486;46.738;7.622;2023-12-07T04:36:52;1.80;;;1.60;;
30743;SDS011;17486;46.738;7.622;2023-12-07T04:39:18;1.33;;;1.15;;
30743;SDS011;17486;46.738;7.622;2023-12-07T04:41:43;1.60;;;1.50;;
30743;SDS011;17486;46.738;7.622;2023-12-07T04:44:08;1.63;;;1.48;;
30743;SDS011;17486;46.738;7.622;2023-12-07T04:46:34;3.47;;;1.10;;
30743;SDS011;17486;46.738;7.622;2023-12-07T04:49:01;1.17;;;1.15;;
30743;SDS011;17486;46.738;7.622;2023-12-07T04:51:26;2.17;;;1.17;;
30743;SDS011;17486;46.738;7.622;2023-12-07T04:53:51;3.10;;;1.20;;
30743;SDS011;17486;46.738;7.622;2023-12-07T04:56:17;2.10;;;0.80;;
30743;SDS011;17486;46.738;7.622;2023-12-07T04:58:42;1.48;;;1.15;;
30743;SDS011;17486;46.738;7.622;2023-12-07T05:01:07;1.65;;;1.20;;
30743;SDS011;17486;46.738;7.622;2023-12-07T05:03:33;1.33;;;1.00;;
30743;SDS011;17486;46.738;7.622;2023-12-07T05:05:58;1.45;;;0.98;;
30743;SDS011;17486;46.738;7.622;2023-12-07T05:08:23;0.80;;;0.80;;
30743;SDS011;17486;46.738;7.622;2023-12-07T05:10:49;4.30;;;1.60;;
30743;SDS011;17486;46.738;7.622;2023-12-07T05:13:14;2.63;;;1.38;;
30743;SDS011;17486;46.738;7.622;2023-12-07T05:15:39;1.33;;;1.10;;
30743;SDS011;17486;46.738;7.622;2023-12-07T05:18:05;1.67;;;1.00;;
30743;SDS011;17486;46.738;7.622;2023-12-07T05:20:32;1.13;;;0.80;;
30743;SDS011;17486;46.738;7.622;2023-12-07T05:22:57;1.75;;;1.20;;
30743;SDS011;17486;46.738;7.622;2023-12-07T05:25:22;1.20;;;0.90;;
30743;SDS011;17486;46.738;7.622;2023-12-07T05:27:48;3.35;;;1.25;;
30743;SDS011;17486;46.738;7.622;2023-12-07T05:30:13;1.60;;;1.33;;
30743;SDS011;17486;46.738;7.622;2023-12-07T05:32:39;1.73;;;1.00;;
30743;SDS011;17486;46.738;7.622;2023-12-07T05:35:04;2.03;;;1.17;;
30743;SDS011;17486;46.738;7.622;2023-12-07T05:37:31;1.33;;;1.23;;
30743;SDS011;17486;46.738;7.622;2023-12-07T05:39:56;1.52;;;1.40;;
30743;SDS011;17486;46.738;7.622;2023-12-07T05:42:21;2.05;;;1.40;;
30743;SDS011;17486;46.738;7.622;2023-12-07T05:44:47;2.47;;;1.25;;
30743;SDS011;17486;46.738;7.622;2023-12-07T05:47:12;1.80;;;1.40;;
30743;SDS011;17486;46.738;7.622;2023-12-07T05:49:38;2.08;;;1.20;;
30743;SDS011;17486;46.738;7.622;2023-12-07T05:52:03;2.45;;;1.50;;
30743;SDS011;17486;46.738;7.622;2023-12-07T05:54:28;1.83;;;1.20;;
30743;SDS011;17486;46.738;7.622;2023-12-07T05:56:54;2.10;;;1.20;;
30743;SDS011;17486;46.738;7.622;2023-12-07T05:59:19;3.00;;;1.50;;
30743;SDS011;17486;46.738;7.622;2023-12-07T06:01:44;5.13;;;1.60;;
30743;SDS011;17486;46.738;7.622;2023-12-07T06:04:10;2.90;;;1.52;;
30743;SDS011;17486;46.738;7.622;2023-12-07T06:06:37;4.15;;;1.50;;
30743;SDS011;17486;46.738;7.622;2023-12-07T06:09:02;2.08;;;1.38;;
30743;SDS011;17486;46.738;7.622;2023-12-07T06:11:30;2.03;;;1.42;;
30743;SDS011;17486;46.738;7.622;2023-12-07T06:13:56;3.08;;;1.70;;
30743;SDS011;17486;46.738;7.622;2023-12-07T06:16:23;2.78;;;1.55;;
30743;SDS011;17486;46.738;7.622;2023-12-07T06:18:49;2.45;;;1.67;;
30743;SDS011;17486;46.738;7.622;2023-12-07T06:21:14;2.80;;;1.45;;
30743;SDS011;17486;46.738;7.622;2023-12-07T06:23:40;5.95;;;3.17;;
30743;SDS011;17486;46.738;7.622;2023-12-07T06:26:06;14.48;;;6.65;;
30743;SDS011;17486;46.738;7.622;2023-12-07T06:28:32;10.55;;;4.50;;
30743;SDS011;17486;46.738;7.622;2023-12-07T06:30:57;4.95;;;3.10;;
30743;SDS011;17486;46.738;7.622;2023-12-07T06:33:23;3.40;;;2.40;;
30743;SDS011;17486;46.738;7.622;2023-12-07T06:35:49;4.13;;;1.95;;
30743;SDS011;17486;46.738;7.622;2023-12-07T06:38:14;2.08;;;1.58;;
30743;SDS011;17486;46.738;7.622;2023-12-07T06:40:40;3.38;;;1.80;;
30743;SDS011;17486;46.738;7.622;2023-12-07T06:43:05;2.70;;;1.83;;
30743;SDS011;17486;46.738;7.622;2023-12-07T06:45:30;2.67;;;1.50;;
30743;SDS011;17486;46.738;7.622;2023-12-07T06:47:56;3.50;;;1.48;;
30743;SDS011;17486;46.738;7.622;2023-12-07T06:50:21;1.85;;;1.40;;
30743;SDS011;17486;46.738;7.622;2023-12-07T06:52:47;2.80;;;1.85;;
30743;SDS011;17486;46.738;7.622;2023-12-07T06:55:12;3.13;;;2.10;;
30743;SDS011;17486;46.738;7.622;2023-12-07T06:57:39;5.50;;;2.55;;
30743;SDS011;17486;46.738;7.622;2023-12-07T07:00:05;4.03;;;2.20;;
30743;SDS011;17486;46.738;7.622;2023-12-07T07:02:35;4.38;;;2.35;;
30743;SDS011;17486;46.738;7.622;2023-12-07T07:05:01;4.20;;;2.45;;
30743;SDS011;17486;46.738;7.622;2023-12-07T07:07:27;3.67;;;2.08;;
30743;SDS011;17486;46.738;7.622;2023-12-07T07:09:54;3.60;;;2.05;;
30743;SDS011;17486;46.738;7.622;2023-12-07T07:12:20;4.20;;;2.33;;
30743;SDS011;17486;46.738;7.622;2023-12-07T07:14:46;3.22;;;1.90;;
30743;SDS011;17486;46.738;7.622;2023-12-07T07:17:12;3.03;;;1.85;;
30743;SDS011;17486;46.738;7.622;2023-12-07T07:19:37;3.97;;;2.70;;
30743;SDS011;17486;46.738;7.622;2023-12-07T07:22:02;5.28;;;2.97;;
30743;SDS011;17486;46.738;7.622;2023-12-07T07:24:28;4.40;;;3.33;;
30743;SDS011;17486;46.738;7.622;2023-12-07T07:26:53;5.93;;;3.08;;
30743;SDS011;17486;46.738;7.622;2023-12-07T07:29:19;6.68;;;3.40;;
30743;SDS011;17486;46.738;7.622;2023-12-07T07:31:44;4.80;;;2.90;;
30743;SDS011;17486;46.738;7.622;2023-12-07T07:34:10;4.80;;;2.65;;
30743;SDS011;17486;46.738;7.622;2023-12-07T07:36:35;4.88;;;3.10;;
30743;SDS011;17486;46.738;7.622;2023-12-07T07:39:00;5.90;;;2.65;;
30743;SDS011;17486;46.738;7.622;2023-12-07T07:41:26;4.28;;;2.60;;
30743;SDS011;17486;46.738;7.622;2023-12-07T07:43:51;4.50;;;3.05;;
30743;SDS011;17486;46.738;7.622;2023-12-07T07:46:17;4.13;;;3.72;;
30743;SDS011;17486;46.738;7.622;2023-12-07T07:48:42;6.38;;;3.42;;
30743;SDS011;17486;46.738;7.622;2023-12-07T07:51:08;5.43;;;3.78;;
30743;SDS011;17486;46.738;7.622;2023-12-07T07:53:33;6.45;;;4.53;;
30743;SDS011;17486;46.738;7.622;2023-12-07T07:55:58;5.70;;;4.82;;
30743;SDS011;17486;46.738;7.622;2023-12-07T07:58:24;7.65;;;4.47;;
30743;SDS011;17486;46.738;7.622;2023-12-07T08:00:49;8.60;;;5.15;;
30743;SDS011;17486;46.738;7.622;2023-12-07T08:03:16;7.32;;;5.20;;
30743;SDS011;17486;46.738;7.622;2023-12-07T08:05:41;6.85;;;4.10;;
30743;SDS011;17486;46.738;7.622;2023-12-07T08:08:06;5.63;;;3.72;;
30743;SDS011;17486;46.738;7.622;2023-12-07T08:10:32;9.52;;;4.13;;
30743;SDS011;17486;46.738;7.622;2023-12-07T08:12:58;5.95;;;3.50;;
30743;SDS011;17486;46.738;7.622;2023-12-07T08:15:23;5.82;;;3.83;;
30743;SDS011;17486;46.738;7.622;2023-12-07T08:17:48;5.78;;;3.28;;
30743;SDS011;17486;46.738;7.622;2023-12-07T08:20:15;4.80;;;3.08;;
30743;SDS011;17486;46.738;7.622;2023-12-07T08:22:41;5.45;;;3.30;;
30743;SDS011;17486;46.738;7.622;2023-12-07T08:25:06;5.03;;;3.35;;
30743;SDS011;17486;46.738;7.622;2023-12-07T08:27:34;4.22;;;3.08;;
30743;SDS011;17486;46.738;7.622;2023-12-07T08:30:00;3.92;;;2.88;;
30743;SDS011;17486;46.738;7.622;2023-12-07T08:32:26;7.57;;;3.20;;
30743;SDS011;17486;46.738;7.622;2023-12-07T08:34:51;3.65;;;2.75;;
30743;SDS011;17486;46.738;7.622;2023-12-07T08:37:17;3.90;;;2.70;;
30743;SDS011;17486;46.738;7.622;2023-12-07T08:39:43;6.43;;;2.10;;
30743;SDS011;17486;46.738;7.622;2023-12-07T08:42:08;3.38;;;1.88;;
30743;SDS011;17486;46.738;7.622;2023-12-07T08:44:33;2.55;;;1.92;;
30743;SDS011;17486;46.738;7.622;2023-12-07T08:46:59;3.13;;;2.05;;
30743;SDS011;17486;46.738;7.622;2023-12-07T08:49:24;3.47;;;2.10;;
30743;SDS011;17486;46.738;7.622;2023-12-07T08:51:51;3.80;;;2.13;;
30743;SDS011;17486;46.738;7.622;2023-12-07T08:54:18;6.25;;;1.90;;
30743;SDS011;17486;46.738;7.622;2023-12-07T08:56:44;3.38;;;2.50;;
30743;SDS011;17486;46.738;7.622;2023-12-07T08:59:10;6.45;;;2.20;;
30743;SDS011;17486;46.738;7.622;2023-12-07T09:01:35;3.33;;;2.13;;
30743;SDS011;17486;46.738;7.622;2023-12-07T09:04:00;2.90;;;1.80;;
30743;SDS011;17486;46.738;7.622;2023-12-07T09:06:26;7.35;;;1.60;;
30743;SDS011;17486;46.738;7.622;2023-12-07T09:08:51;2.20;;;1.60;;
30743;SDS011;17486;46.738;7.622;2023-12-07T09:11:17;2.90;;;1.85;;
30743;SDS011;17486;46.738;7.622;2023-12-07T09:13:42;3.28;;;2.08;;
30743;SDS011;17486;46.738;7.622;2023-12-07T09:16:08;2.53;;;1.73;;
30743;SDS011;17486;46.738;7.622;2023-12-07T09:18:33;2.50;;;1.98;;
30743;SDS011;17486;46.738;7.622;2023-12-07T09:21:00;3.10;;;2.05;;
30743;SDS011;17486;46.738;7.622;2023-12-07T09:23:26;3.42;;;1.90;;
30743;SDS011;17486;46.738;7.622;2023-12-07T09:25:51;3.85;;;1.92;;
30743;SDS011;17486;46.738;7.622;2023-12-07T09:28:17;6.43;;;2.50;;
30743;SDS011;17486;46.738;7.622;2023-12-07T09:30:42;9.90;;;2.55;;
30743;SDS011;17486;46.738;7.622;2023-12-07T09:33:09;3.60;;;2.10;;
30743;SDS011;17486;46.738;7.622;2023-12-07T09:35:34;2.50;;;1.98;;
30743;SDS011;17486;46.738;7.622;2023-12-07T09:38:00;2.80;;;2.08;;
30743;SDS011;17486;46.738;7.622;2023-12-07T09:40:26;4.38;;;2.10;;
30743;SDS011;17486;46.738;7.622;2023-12-07T09:42:53;5.85;;;2.20;;
30743;SDS011;17486;46.738;7.622;2023-12-07T09:45:18;4.78;;;2.10;;
30743;SDS011;17486;46.738;7.622;2023-12-07T09:47:47;5.93;;;2.30;;
30743;SDS011;17486;46.738;7.622;2023-12-07T09:50:19;3.40;;;1.60;;
30743;SDS011;17486;46.738;7.622;2023-12-07T09:52:54;3.63;;;1.65;;
30743;SDS011;17486;46.738;7.622;2023-12-07T09:55:21;3.13;;;1.67;;
30743;SDS011;17486;46.738;7.622;2023-12-07T09:57:47;4.35;;;1.83;;
30743;SDS011;17486;46.738;7.622;2023-12-07T10:00:14;1.90;;;1.67;;
30743;SDS011;17486;46.738;7.622;2023-12-07T10:02:40;3.17;;;1.90;;
30743;SDS011;17486;46.738;7.622;2023-12-07T10:05:10;2.55;;;1.85;;
30743;SDS011;17486;46.738;7.622;2023-12-07T10:07:42;3.97;;;2.92;;
30743;SDS011;17486;46.738;7.622;2023-12-07T10:10:08;4.63;;;2.80;;
30743;SDS011;17486;46.738;7.622;2023-12-07T10:12:40;5.78;;;3.10;;
30743;SDS011;17486;46.738;7.622;2023-12-07T10:15:13;5.75;;;3.47;;
30743;SDS011;17486;46.738;7.622;2023-12-07T10:17:48;5.85;;;3.88;;
30743;SDS011;17486;46.738;7.622;2023-12-07T10:20:18;7.13;;;3.72;;
30743;SDS011;17486;46.738;7.622;2023-12-07T10:23:00;8.35;;;3.95;;
30743;SDS011;17486;46.738;7.622;2023-12-07T10:25:29;7.78;;;4.30;;
30743;SDS011;17486;46.738;7.622;2023-12-07T10:27:54;6.35;;;4.05;;
30743;SDS011;17486;46.738;7.622;2023-12-07T10:30:20;8.50;;;4.85;;
30743;SDS011;17486;46.738;7.622;2023-12-07T10:32:50;8.63;;;5.07;;
30743;SDS011;17486;46.738;7.622;2023-12-07T10:35:16;9.88;;;4.90;;
30743;SDS011;17486;46.738;7.622;2023-12-07T10:37:41;8.88;;;4.88;;
30743;SDS011;17486;46.738;7.622;2023-12-07T10:40:07;9.77;;;5.18;;
30743;SDS011;17486;46.738;7.622;2023-12-07T10:42:33;9.48;;;3.50;;
30743;SDS011;17486;46.738;7.622;2023-12-07T10:45:02;4.65;;;2.75;;
30743;SDS011;17486;46.738;7.622;2023-12-07T10:47:29;5.65;;;2.95;;
30743;SDS011;17486;46.738;7.622;2023-12-07T10:49:57;5.90;;;2.40;;
30743;SDS011;17486;46.738;7.622;2023-12-07T10:52:25;3.88;;;2.50;;
30743;SDS011;17486;46.738;7.622;2023-12-07T10:55:10;5.57;;;2.95;;
30743;SDS011;17486;46.738;7.622;2023-12-07T10:57:40;7.00;;;2.75;;
30743;SDS011;17486;46.738;7.622;2023-12-07T11:00:07;4.90;;;2.65;;
30743;SDS011;17486;46.738;7.622;2023-12-07T11:02:34;3.00;;;2.38;;
30743;SDS011;17486;46.738;7.622;2023-12-07T11:05:01;5.57;;;2.80;;
30743;SDS011;17486;46.738;7.622;2023-12-07T11:07:28;6.28;;;3.05;;
30743;SDS011;17486;46.738;7.622;2023-12-07T11:10:05;4.25;;;3.15;;
30743;SDS011;17486;46.738;7.622;2023-12-07T11:12:45;5.90;;;2.70;;
30743;SDS011;17486;46.738;7.622;2023-12-07T11:15:16;2.63;;;2.10;;
30743;SDS011;17486;46.738;7.622;2023-12-07T11:17:55;4.78;;;3.00;;
30743;SDS011;17486;46.738;7.622;2023-12-07T11:20:22;4.03;;;3.00;;
30743;SDS011;17486;46.738;7.622;2023-12-07T11:22:56;4.40;;;2.75;;
30743;SDS011;17486;46.738;7.622;2023-12-07T11:25:21;3.00;;;2.70;;
30743;SDS011;17486;46.738;7.622;2023-12-07T11:27:47;4.65;;;3.28;;
30743;SDS011;17486;46.738;7.622;2023-12-07T11:30:13;3.17;;;2.70;;
30743;SDS011;17486;46.738;7.622;2023-12-07T11:32:40;4.07;;;2.97;;
30743;SDS011;17486;46.738;7.622;2023-12-07T11:35:05;3.35;;;2.63;;
30743;SDS011;17486;46.738;7.622;2023-12-07T11:40:29;3.70;;;2.50;;
30743;SDS011;17486;46.738;7.622;2023-12-07T11:42:55;4.53;;;2.40;;
30743;SDS011;17486;46.738;7.622;2023-12-07T11:45:39;2.65;;;2.45;;
30743;SDS011;17486;46.738;7.622;2023-12-07T11:48:14;3.50;;;3.00;;
30743;SDS011;17486;46.738;7.622;2023-12-07T11:50:55;3.75;;;2.70;;
30743;SDS011;17486;46.738;7.622;2023-12-07T11:53:26;5.82;;;2.80;;
30743;SDS011;17486;46.738;7.622;2023-12-07T11:55:56;4.40;;;3.17;;
30743;SDS011;17486;46.738;7.622;2023-12-07T11:58:26;3.70;;;3.00;;
30743;SDS011;17486;46.738;7.622;2023-12-07T12:00:52;3.38;;;2.90;;
30743;SDS011;17486;46.738;7.622;2023-12-07T12:03:18;3.15;;;2.70;;
30743;SDS011;17486;46.738;7.622;2023-12-07T12:05:45;3.80;;;3.15;;
30743;SDS011;17486;46.738;7.622;2023-12-07T12:08:11;5.90;;;2.97;;
30743;SDS011;17486;46.738;7.622;2023-12-07T12:10:37;3.90;;;3.00;;
30743;SDS011;17486;46.738;7.622;2023-12-07T12:13:03;3.20;;;2.90;;
30743;SDS011;17486;46.738;7.622;2023-12-07T12:15:29;4.03;;;3.35;;
30743;SDS011;17486;46.738;7.622;2023-12-07T12:17:56;3.20;;;2.90;;
30743;SDS011;17486;46.738;7.622;2023-12-07T12:20:22;5.75;;;3.65;;
30743;SDS011;17486;46.738;7.622;2023-12-07T12:22:49;3.85;;;3.45;;
30743;SDS011;17486;46.738;7.622;2023-12-07T12:25:18;4.13;;;3.72;;
30743;SDS011;17486;46.738;7.622;2023-12-07T12:28:02;5.32;;;3.83;;
30743;SDS011;17486;46.738;7.622;2023-12-07T12:30:30;4.65;;;3.70;;
30743;SDS011;17486;46.738;7.622;2023-12-07T12:32:56;4.18;;;3.78;;
30743;SDS011;17486;46.738;7.622;2023-12-07T12:35:21;6.45;;;4.28;;
30743;SDS011;17486;46.738;7.622;2023-12-07T12:37:48;5.50;;;3.72;;
30743;SDS011;17486;46.738;7.622;2023-12-07T12:40:17;5.57;;;3.83;;
30743;SDS011;17486;46.738;7.622;2023-12-07T12:42:48;3.58;;;3.28;;
30743;SDS011;17486;46.738;7.622;2023-12-07T12:45:15;3.90;;;3.35;;
30743;SDS011;17486;46.738;7.622;2023-12-07T12:47:42;3.42;;;3.00;;
30743;SDS011;17486;46.738;7.622;2023-12-07T12:50:32;4.25;;;3.28;;
30743;SDS011;17486;46.738;7.622;2023-12-07T12:53:06;5.18;;;3.38;;
30743;SDS011;17486;46.738;7.622;2023-12-07T12:55:36;3.63;;;3.20;;
30743;SDS011;17486;46.738;7.622;2023-12-07T12:58:02;6.15;;;3.58;;
30743;SDS011;17486;46.738;7.622;2023-12-07T13:00:29;3.92;;;3.13;;
30743;SDS011;17486;46.738;7.622;2023-12-07T13:02:59;3.58;;;3.08;;
30743;SDS011;17486;46.738;7.622;2023-12-07T13:05:29;3.92;;;3.30;;
30743;SDS011;17486;46.738;7.622;2023-12-07T13:07:54;4.97;;;3.35;;
30743;SDS011;17486;46.738;7.622;2023-12-07T13:10:20;4.63;;;3.58;;
30743;SDS011;17486;46.738;7.622;2023-12-07T13:12:45;4.45;;;3.33;;
30743;SDS011;17486;46.738;7.622;2023-12-07T13:15:11;4.82;;;3.50;;
30743;SDS011;17486;46.738;7.622;2023-12-07T13:17:38;5.30;;;3.88;;
30743;SDS011;17486;46.738;7.622;2023-12-07T13:20:05;5.25;;;4.03;;
30743;SDS011;17486;46.738;7.622;2023-12-07T13:22:35;5.90;;;4.10;;
30743;SDS011;17486;46.738;7.622;2023-12-07T13:25:01;4.35;;;3.13;;
30743;SDS011;17486;46.738;7.622;2023-12-07T13:27:27;5.70;;;3.25;;
30743;SDS011;17486;46.738;7.622;2023-12-07T13:29:53;5.65;;;3.65;;
30743;SDS011;17486;46.738;7.622;2023-12-07T13:32:18;7.35;;;4.40;;
30743;SDS011;17486;46.738;7.622;2023-12-07T13:34:44;4.60;;;3.88;;
30743;SDS011;17486;46.738;7.622;2023-12-07T13:37:09;6.00;;;4.10;;
30743;SDS011;17486;46.738;7.622;2023-12-07T13:39:34;5.22;;;3.50;;
30743;SDS011;17486;46.738;7.622;2023-12-07T13:42:01;5.50;;;3.47;;
30743;SDS011;17486;46.738;7.622;2023-12-07T13:44:27;5.13;;;3.80;;
30743;SDS011;17486;46.738;7.622;2023-12-07T13:46:52;4.05;;;3.33;;
30743;SDS011;17486;46.738;7.622;2023-12-07T13:49:19;5.10;;;3.25;;
30743;SDS011;17486;46.738;7.622;2023-12-07T13:51:45;4.68;;;3.53;;
30743;SDS011;17486;46.738;7.622;2023-12-07T13:54:11;5.57;;;3.55;;
30743;SDS011;17486;46.738;7.622;2023-12-07T13:56:37;4.93;;;3.50;;
30743;SDS011;17486;46.738;7.622;2023-12-07T13:59:02;5.45;;;3.25;;
30743;SDS011;17486;46.738;7.622;2023-12-07T14:01:28;5.10;;;3.53;;
30743;SDS011;17486;46.738;7.622;2023-12-07T14:03:54;4.75;;;3.10;;
30743;SDS011;17486;46.738;7.622;2023-12-07T14:06:23;6.25;;;3.40;;
30743;SDS011;17486;46.738;7.622;2023-12-07T14:08:49;3.28;;;2.88;;
30743;SDS011;17486;46.738;7.622;2023-12-07T14:11:18;4.82;;;2.45;;
30743;SDS011;17486;46.738;7.622;2023-12-07T14:13:44;5.50;;;2.72;;
30743;SDS011;17486;46.738;7.622;2023-12-07T14:16:13;4.90;;;2.55;;
30743;SDS011;17486;46.738;7.622;2023-12-07T14:18:39;3.55;;;2.20;;
30743;SDS011;17486;46.738;7.622;2023-12-07T14:21:04;2.47;;;2.00;;
30743;SDS011;17486;46.738;7.622;2023-12-07T14:23:30;3.92;;;1.98;;
30743;SDS011;17486;46.738;7.622;2023-12-07T14:25:55;3.38;;;2.20;;
30743;SDS011;17486;46.738;7.622;2023-12-07T14:28:23;2.63;;;2.10;;
30743;SDS011;17486;46.738;7.622;2023-12-07T14:30:49;2.53;;;1.92;;
30743;SDS011;17486;46.738;7.622;2023-12-07T14:33:14;2.28;;;2.08;;
30743;SDS011;17486;46.738;7.622;2023-12-07T14:35:40;2.90;;;2.40;;
30743;SDS011;17486;46.738;7.622;2023-12-07T14:38:05;3.45;;;2.60;;
30743;SDS011;17486;46.738;7.622;2023-12-07T14:40:31;2.72;;;2.47;;
30743;SDS011;17486;46.738;7.622;2023-12-07T14:42:56;3.40;;;2.78;;
30743;SDS011;17486;46.738;7.622;2023-12-07T14:45:22;3.72;;;2.63;;
30743;SDS011;17486;46.738;7.622;2023-12-07T14:47:47;5.50;;;2.83;;
30743;SDS011;17486;46.738;7.622;2023-12-07T14:50:13;3.08;;;2.40;;
30743;SDS011;17486;46.738;7.622;2023-12-07T14:52:39;4.70;;;3.00;;
30743;SDS011;17486;46.738;7.622;2023-12-07T14:55:04;5.70;;;2.90;;
30743;SDS011;17486;46.738;7.622;2023-12-07T14:57:31;8.13;;;3.22;;
30743;SDS011;17486;46.738;7.622;2023-12-07T14:59:56;5.60;;;3.30;;
30743;SDS011;17486;46.738;7.622;2023-12-07T15:02:23;6.32;;;4.07;;
30743;SDS011;17486;46.738;7.622;2023-12-07T15:04:49;5.53;;;3.53;;
30743;SDS011;17486;46.738;7.622;2023-12-07T15:07:15;4.47;;;3.45;;
30743;SDS011;17486;46.738;7.622;2023-12-07T15:09:41;5.10;;;4.25;;
30743;SDS011;17486;46.738;7.622;2023-12-07T15:12:07;5.80;;;4.15;;
30743;SDS011;17486;46.738;7.622;2023-12-07T15:14:33;5.55;;;4.10;;
30743;SDS011;17486;46.738;7.622;2023-12-07T15:16:58;6.47;;;4.25;;
30743;SDS011;17486;46.738;7.622;2023-12-07T15:19:24;9.15;;;4.38;;
30743;SDS011;17486;46.738;7.622;2023-12-07T15:21:49;7.00;;;4.75;;